Time;durP1;ratioP1;P1;durP2;ratioP2;P2;SDS_P1;SDS_P2;PMS_P1;PMS_P2;Temp;Humidity;BMP_temperature;BMP_pressure;BME280_temperature;BME280_humidity;BME280_pressure;Samples;Min_cycle;Max_cycle;Signal;HPM_P1;HPM_P2
2022/04/14 00:00:07;;;;;;;37.17;15.82;;;9.10;99.90;;;;;;4989275;28;20124;-60
2022/04/14 00:02:32;;;;;;;35.00;15.85;;;9.00;99.90;;;;;;4991504;28;20038;-60
2022/04/14 00:04:58;;;;;;;34.63;14.00;;;9.00;99.90;;;;;;4987023;28;20031;-60
2022/04/14 00:07:23;;;;;;;32.20;14.20;;;9.10;99.90;;;;;;4990499;28;20037;-60
2022/04/14 00:09:49;;;;;;;42.72;14.98;;;9.00;99.90;;;;;;4989930;28;20495;-60
2022/04/14 00:12:15;;;;;;;32.83;14.52;;;8.80;99.90;;;;;;4989862;28;20031;-60
2022/04/14 00:14:41;;;;;;;34.35;14.70;;;8.70;99.90;;;;;;4987519;28;20026;-60
2022/04/14 00:17:06;;;;;;;32.38;14.27;;;8.80;99.90;;;;;;4987400;28;20046;-60
2022/04/14 00:19:32;;;;;;;38.83;15.45;;;8.90;99.90;;;;;;4991499;28;20058;-60
2022/04/14 00:21:58;;;;;;;35.80;15.05;;;8.90;99.90;;;;;;4989066;28;20038;-60
2022/04/14 00:24:24;;;;;;;28.80;12.90;;;8.90;99.90;;;;;;4991532;28;20030;-60
2022/04/14 00:26:50;;;;;;;33.78;14.00;;;8.90;99.90;;;;;;4988589;28;20033;-60
2022/04/14 00:29:15;;;;;;;34.20;14.23;;;8.80;99.90;;;;;;4990631;28;20331;-60
2022/04/14 00:31:41;;;;;;;27.98;12.10;;;8.60;99.90;;;;;;4989642;28;20037;-60
2022/04/14 00:34:06;;;;;;;29.50;11.85;;;8.40;99.90;;;;;;4991136;28;20034;-60
2022/04/14 00:36:35;;;;;;;25.25;11.00;;;8.30;99.90;;;;;;4990134;28;20030;-60
2022/04/14 00:39:01;;;;;;;31.40;12.55;;;8.20;99.90;;;;;;4988819;28;20256;-60
2022/04/14 00:41:27;;;;;;;25.23;11.95;;;8.20;99.90;;;;;;4990154;28;20107;-59
2022/04/14 00:43:54;;;;;;;25.25;11.43;;;8.30;99.90;;;;;;4989581;28;20519;-60
2022/04/14 00:46:21;;;;;;;24.15;11.00;;;8.30;99.90;;;;;;4988275;28;20464;-60
2022/04/14 00:48:48;;;;;;;27.00;12.35;;;8.30;99.90;;;;;;4988672;28;20029;-60
2022/04/14 00:51:14;;;;;;;32.88;13.50;;;8.30;99.90;;;;;;4989113;28;20120;-60
2022/04/14 00:53:40;;;;;;;29.38;12.43;;;8.30;99.90;;;;;;4990459;28;20444;-60
2022/04/14 00:56:06;;;;;;;28.67;10.98;;;8.30;99.90;;;;;;4988088;28;20030;-60
2022/04/14 00:58:34;;;;;;;24.50;11.13;;;8.10;99.90;;;;;;4988685;28;20113;-60
2022/04/14 01:01:00;;;;;;;28.35;11.98;;;8.00;99.90;;;;;;4988133;28;20678;-60
2022/04/14 01:03:26;;;;;;;35.63;12.73;;;7.80;99.90;;;;;;4990331;28;20085;-60
2022/04/14 01:05:53;;;;;;;26.17;12.23;;;7.70;99.90;;;;;;4987236;28;20042;-60
2022/04/14 01:08:19;;;;;;;21.73;10.93;;;7.70;99.90;;;;;;4988630;28;20030;-60
2022/04/14 01:10:49;;;;;;;30.20;13.57;;;7.70;99.90;;;;;;4987360;28;20081;-60
2022/04/14 01:13:18;;;;;;;23.27;11.47;;;7.70;99.90;;;;;;4989223;28;20034;-60
2022/04/14 01:15:45;;;;;;;20.17;10.00;;;7.90;99.90;;;;;;4988426;28;20100;-61
2022/04/14 01:18:11;;;;;;;20.60;9.05;;;8.00;99.90;;;;;;4990216;28;20108;-60
2022/04/14 01:20:39;;;;;;;18.27;9.25;;;8.20;99.90;;;;;;4989966;28;20045;-60
2022/04/14 01:23:07;;;;;;;20.35;8.93;;;8.20;99.90;;;;;;4988373;28;20034;-60
2022/04/14 01:25:34;;;;;;;18.50;9.18;;;8.20;99.90;;;;;;4989275;28;20081;-60
2022/04/14 01:28:01;;;;;;;10.77;6.80;;;8.10;99.90;;;;;;4988189;28;20045;-60
2022/04/14 01:30:27;;;;;;;13.68;7.82;;;7.70;99.90;;;;;;4990081;28;20399;-60
2022/04/14 01:32:53;;;;;;;14.60;7.38;;;7.30;99.90;;;;;;4989163;28;20043;-60
2022/04/14 01:35:18;;;;;;;15.38;7.70;;;7.10;99.90;;;;;;4988962;28;20411;-60
2022/04/14 01:37:44;;;;;;;13.70;6.63;;;7.10;99.90;;;;;;4988787;28;20073;-60
2022/04/14 01:40:10;;;;;;;15.50;7.60;;;7.20;99.90;;;;;;4989455;28;20122;-60
2022/04/14 01:42:36;;;;;;;12.05;6.80;;;7.30;99.90;;;;;;4988526;28;20026;-60
2022/04/14 01:45:03;;;;;;;14.57;7.05;;;7.30;99.90;;;;;;4988064;28;20541;-60
2022/04/14 01:47:28;;;;;;;12.93;7.13;;;7.20;99.90;;;;;;4987865;28;20101;-60
2022/04/14 01:49:54;;;;;;;12.98;6.80;;;7.30;99.90;;;;;;4988878;28;20121;-60
2022/04/14 01:52:20;;;;;;;14.43;7.20;;;7.30;99.90;;;;;;4989502;28;20038;-60
2022/04/14 01:54:45;;;;;;;21.55;9.07;;;7.30;99.90;;;;;;4988573;28;20042;-60
2022/04/14 01:57:11;;;;;;;20.42;9.10;;;7.30;99.90;;;;;;4987733;28;20485;-60
2022/04/14 01:59:37;;;;;;;21.35;9.27;;;7.20;99.90;;;;;;4988354;28;20030;-60
2022/04/14 02:02:03;;;;;;;22.05;9.50;;;7.10;99.90;;;;;;4988707;28;20092;-60
2022/04/14 02:04:29;;;;;;;20.60;8.77;;;7.10;99.90;;;;;;4988839;28;20026;-60
2022/04/14 02:06:55;;;;;;;23.02;8.95;;;7.10;99.90;;;;;;4986784;28;20031;-60
2022/04/14 02:09:20;;;;;;;17.77;9.00;;;7.10;99.90;;;;;;4988334;28;20085;-60
2022/04/14 02:11:46;;;;;;;18.77;8.90;;;7.20;99.90;;;;;;4988514;28;20031;-61
2022/04/14 02:14:12;;;;;;;17.35;8.45;;;7.20;99.90;;;;;;4988362;28;20412;-60
2022/04/14 02:16:37;;;;;;;20.00;8.52;;;7.30;99.90;;;;;;4984337;28;20748;-60
2022/04/14 02:19:03;;;;;;;21.05;9.13;;;7.40;99.90;;;;;;4986246;28;20722;-60
2022/04/14 02:21:29;;;;;;;18.50;9.00;;;7.40;99.90;;;;;;4987754;28;20116;-61
2022/04/14 02:23:54;;;;;;;19.17;8.63;;;7.40;99.90;;;;;;4987183;28;20050;-61
2022/04/14 02:26:20;;;;;;;21.90;9.18;;;7.50;99.90;;;;;;4988101;28;20030;-60
2022/04/14 02:28:47;;;;;;;16.55;7.85;;;7.40;99.90;;;;;;4984948;28;20117;-61
2022/04/14 02:31:12;;;;;;;14.93;7.70;;;7.30;99.90;;;;;;4988303;28;20786;-60
2022/04/14 02:33:38;;;;;;;19.88;8.45;;;7.30;99.90;;;;;;4987795;28;20034;-60
2022/04/14 02:36:04;;;;;;;15.02;7.78;;;7.30;99.90;;;;;;4987365;28;20042;-60
2022/04/14 02:38:30;;;;;;;15.98;7.93;;;7.40;99.90;;;;;;4983868;28;20037;-60
2022/04/14 02:40:55;;;;;;;15.38;7.47;;;7.40;99.90;;;;;;4982017;28;20471;-60
2022/04/14 02:43:21;;;;;;;20.92;8.43;;;7.30;99.90;;;;;;4987319;28;20030;-60
2022/04/14 02:45:47;;;;;;;15.80;7.88;;;7.30;99.90;;;;;;4988178;28;20102;-60
2022/04/14 02:48:13;;;;;;;14.73;7.53;;;7.30;99.90;;;;;;4986102;28;20038;-61
2022/04/14 02:50:43;;;;;;;19.45;7.95;;;7.20;99.90;;;;;;4980058;28;20412;-60
2022/04/14 02:53:09;;;;;;;16.35;7.32;;;7.00;99.90;;;;;;4983032;28;20641;-60
2022/04/14 02:55:35;;;;;;;12.85;6.72;;;6.90;99.90;;;;;;4987726;28;20023;-60
2022/04/14 02:58:01;;;;;;;13.18;7.07;;;6.90;99.90;;;;;;4985528;28;20050;-60
2022/04/14 03:00:26;;;;;;;13.88;6.97;;;6.90;99.90;;;;;;4988112;28;20070;-60
2022/04/14 03:02:52;;;;;;;12.63;6.90;;;6.90;99.90;;;;;;4986740;28;20042;-60
2022/04/14 03:05:19;;;;;;;16.55;6.93;;;7.00;99.90;;;;;;4985892;28;20030;-60
2022/04/14 03:07:44;;;;;;;12.00;6.50;;;7.00;99.90;;;;;;4988287;28;20038;-60
2022/04/14 03:10:10;;;;;;;16.48;7.00;;;6.90;99.90;;;;;;4990185;28;20902;-60
2022/04/14 03:12:46;;;;;;;11.65;6.25;;;6.80;99.90;;;;;;4986615;28;20073;-60
2022/04/14 03:15:13;;;;;;;12.40;6.57;;;6.80;99.90;;;;;;4989001;28;20475;-60
2022/04/14 03:17:39;;;;;;;14.07;7.53;;;6.70;99.90;;;;;;4984740;28;20031;-59
2022/04/14 03:20:05;;;;;;;13.43;6.88;;;6.70;99.90;;;;;;4991016;28;20475;-60
2022/04/14 03:22:35;;;;;;;12.25;7.38;;;6.60;99.90;;;;;;4992029;28;20037;-59
2022/04/14 03:25:06;;;;;;;10.80;6.38;;;6.60;99.90;;;;;;4990810;28;20126;-60
2022/04/14 03:27:32;;;;;;;12.63;6.07;;;6.60;99.90;;;;;;4991485;28;20035;-59
2022/04/14 03:29:57;;;;;;;11.82;6.68;;;6.60;99.90;;;;;;4991155;28;20097;-60
2022/04/14 03:32:24;;;;;;;12.32;6.93;;;6.60;99.90;;;;;;4991678;28;20038;-60
2022/04/14 03:34:51;;;;;;;13.73;6.90;;;6.60;99.90;;;;;;4989912;28;20538;-60
2022/04/14 03:37:16;;;;;;;18.48;7.10;;;6.60;99.90;;;;;;4989933;28;20038;-59
2022/04/14 03:39:42;;;;;;;13.85;7.07;;;6.60;99.90;;;;;;4991659;28;20038;-59
2022/04/14 03:42:08;;;;;;;13.38;6.65;;;6.60;99.90;;;;;;4983888;28;20451;-60
2022/04/14 03:44:33;;;;;;;13.65;6.65;;;6.50;99.90;;;;;;4988665;28;20062;-60
2022/04/14 03:46:59;;;;;;;12.77;6.35;;;6.40;99.90;;;;;;4989677;28;20357;-60
2022/04/14 03:49:25;;;;;;;13.98;7.07;;;6.40;99.90;;;;;;4990425;28;20057;-60
2022/04/14 03:51:54;;;;;;;13.68;7.07;;;6.40;99.90;;;;;;4988826;28;20042;-60
2022/04/14 03:54:20;;;;;;;14.38;7.40;;;6.40;99.90;;;;;;4991905;28;20422;-59
2022/04/14 03:56:47;;;;;;;16.40;7.00;;;6.40;99.90;;;;;;4989725;28;20030;-59
2022/04/14 03:59:13;;;;;;;13.80;6.88;;;6.50;99.90;;;;;;4989726;28;20141;-59
2022/04/14 04:01:39;;;;;;;13.45;7.30;;;6.50;99.90;;;;;;4990544;28;20035;-59
2022/04/14 04:04:05;;;;;;;14.40;7.57;;;6.60;99.90;;;;;;4988725;28;20030;-59
2022/04/14 04:06:31;;;;;;;16.65;7.25;;;6.60;99.90;;;;;;4987753;28;20034;-59
2022/04/14 04:08:57;;;;;;;12.55;6.40;;;6.60;99.90;;;;;;4990885;28;20137;-60
2022/04/14 04:11:22;;;;;;;16.67;7.57;;;6.60;99.90;;;;;;4990023;28;20034;-59
2022/04/14 04:13:48;;;;;;;15.13;7.10;;;6.60;99.90;;;;;;4991259;28;20532;-60
2022/04/14 04:16:14;;;;;;;13.70;7.38;;;6.50;99.90;;;;;;4987806;28;20906;-60
2022/04/14 04:18:39;;;;;;;22.35;7.50;;;6.40;99.90;;;;;;4988925;28;20034;-60
2022/04/14 04:21:05;;;;;;;13.90;7.55;;;6.30;99.90;;;;;;4989250;28;20105;-61
2022/04/14 04:23:31;;;;;;;15.35;7.35;;;6.20;99.90;;;;;;4990388;28;20081;-61
2022/04/14 04:25:58;;;;;;;18.02;7.18;;;6.30;99.90;;;;;;4988068;28;20039;-60
2022/04/14 04:28:30;;;;;;;14.13;7.75;;;6.30;99.90;;;;;;4979317;28;20486;-61
2022/04/14 04:30:56;;;;;;;17.15;7.60;;;6.20;99.90;;;;;;4984514;28;20560;-61
2022/04/14 04:33:22;;;;;;;16.33;7.10;;;6.20;99.90;;;;;;4981053;28;20042;-61
2022/04/14 04:35:50;;;;;;;12.13;6.90;;;6.10;99.90;;;;;;4985550;28;20029;-60
2022/04/14 04:38:16;;;;;;;14.77;7.03;;;6.10;99.90;;;;;;4988450;28;20156;-61
2022/04/14 04:40:42;;;;;;;13.63;6.55;;;6.10;99.90;;;;;;4985067;28;20125;-60
2022/04/14 04:43:09;;;;;;;12.88;7.55;;;6.10;99.90;;;;;;4988708;28;20491;-60
2022/04/14 04:45:35;;;;;;;13.60;6.50;;;6.00;99.90;;;;;;4988860;28;20043;-60
2022/04/14 04:48:02;;;;;;;17.38;7.22;;;6.00;99.90;;;;;;4981317;28;20035;-61
2022/04/14 04:50:28;;;;;;;11.98;6.78;;;6.00;99.90;;;;;;4971968;28;20039;-60
2022/04/14 04:52:54;;;;;;;16.92;6.78;;;6.00;99.90;;;;;;4971752;28;20203;-60
2022/04/14 04:55:19;;;;;;;14.02;6.95;;;6.00;99.90;;;;;;4974940;28;20113;-60
2022/04/14 04:57:45;;;;;;;10.70;6.28;;;6.10;99.90;;;;;;4990548;28;20026;-60
2022/04/14 05:00:11;;;;;;;12.43;6.45;;;6.10;99.90;;;;;;4989337;28;20490;-61
2022/04/14 05:02:37;;;;;;;14.27;6.22;;;6.00;99.90;;;;;;4987851;28;20030;-60
2022/04/14 05:05:03;;;;;;;12.80;6.72;;;5.90;99.90;;;;;;4989699;28;20145;-61
2022/04/14 05:07:29;;;;;;;11.93;6.63;;;5.90;99.90;;;;;;4987961;28;20117;-60
2022/04/14 05:09:55;;;;;;;15.93;7.40;;;5.90;99.90;;;;;;4988364;28;20062;-61
2022/04/14 05:12:20;;;;;;;13.02;6.63;;;6.10;99.90;;;;;;4989508;28;20124;-61
2022/04/14 05:14:46;;;;;;;13.80;7.15;;;6.20;99.90;;;;;;4989858;28;20506;-61
2022/04/14 05:17:12;;;;;;;12.82;7.13;;;6.40;99.90;;;;;;4983271;28;20034;-61
2022/04/14 05:19:37;;;;;;;12.45;6.45;;;6.50;99.90;;;;;;4983206;28;20106;-60
2022/04/14 05:22:03;;;;;;;14.68;6.88;;;6.50;99.90;;;;;;4983297;28;20090;-60
2022/04/14 05:24:30;;;;;;;12.68;6.80;;;6.50;99.90;;;;;;4980289;28;20034;-60
2022/04/14 05:26:56;;;;;;;12.57;6.90;;;6.60;99.90;;;;;;4985235;28;20101;-60
2022/04/14 05:29:22;;;;;;;13.00;7.00;;;6.70;99.90;;;;;;4986803;28;20443;-60
2022/04/14 05:31:48;;;;;;;10.60;5.82;;;6.70;99.90;;;;;;4988922;28;20085;-60
2022/04/14 05:34:13;;;;;;;14.23;6.57;;;6.70;99.90;;;;;;4984732;28;20035;-60
2022/04/14 05:36:39;;;;;;;10.70;6.05;;;6.70;99.90;;;;;;4987482;28;20030;-60
2022/04/14 05:39:05;;;;;;;13.15;6.47;;;6.80;99.90;;;;;;4986342;28;20026;-60
2022/04/14 05:41:32;;;;;;;11.45;6.18;;;6.70;99.90;;;;;;4988394;28;20034;-67
2022/04/14 05:43:57;;;;;;;12.90;6.55;;;6.80;99.90;;;;;;4989079;28;20058;-64
2022/04/14 05:46:23;;;;;;;12.85;6.53;;;6.80;99.90;;;;;;4988197;28;20034;-66
2022/04/14 05:48:49;;;;;;;12.23;6.57;;;7.00;99.90;;;;;;4985024;28;20022;-66
2022/04/14 05:51:15;;;;;;;12.50;7.07;;;7.10;99.90;;;;;;4988129;28;20042;-67
2022/04/14 05:53:41;;;;;;;13.50;7.20;;;7.10;99.90;;;;;;4989801;28;20034;-66
2022/04/14 05:56:07;;;;;;;13.52;7.28;;;7.20;99.90;;;;;;4987990;28;20398;-67
2022/04/14 05:58:33;;;;;;;15.02;7.57;;;7.30;99.90;;;;;;4986397;28;20026;-67
2022/04/14 06:00:58;;;;;;;16.00;8.30;;;7.50;99.90;;;;;;4984439;28;20045;-64
2022/04/14 06:03:25;;;;;;;13.73;7.53;;;7.60;99.90;;;;;;4987693;28;20065;-66
2022/04/14 06:05:51;;;;;;;14.00;7.22;;;7.70;99.90;;;;;;4989669;28;20081;-66
2022/04/14 06:08:17;;;;;;;12.45;6.60;;;7.80;99.90;;;;;;4988044;28;20042;-66
2022/04/14 06:10:43;;;;;;;12.68;6.05;;;7.90;99.90;;;;;;4987875;28;20396;-65
2022/04/14 06:13:11;;;;;;;11.27;6.15;;;8.00;99.90;;;;;;4988741;28;20091;-66
2022/04/14 06:15:37;;;;;;;13.60;6.93;;;8.10;99.90;;;;;;4979999;28;20030;-65
2022/04/14 06:18:03;;;;;;;11.32;6.07;;;8.20;99.90;;;;;;4988531;28;20534;-66
2022/04/14 06:20:29;;;;;;;17.38;7.85;;;8.30;99.90;;;;;;4987965;28;20049;-66
2022/04/14 06:22:56;;;;;;;17.17;8.80;;;8.50;99.90;;;;;;4989440;28;20085;-66
2022/04/14 06:25:25;;;;;;;15.18;7.57;;;8.80;99.90;;;;;;4986848;28;20029;-66
2022/04/14 06:27:51;;;;;;;18.17;7.85;;;8.90;99.90;;;;;;4989550;28;20030;-66
2022/04/14 06:30:18;;;;;;;12.30;7.10;;;9.10;99.90;;;;;;4986545;28;20042;-66
2022/04/14 06:33:05;;;;;;;13.52;7.88;;;9.20;99.90;;;;;;4989034;28;20395;-66
2022/04/14 06:35:32;;;;;;;19.02;9.82;;;9.40;99.90;;;;;;4989140;28;20113;-67
2022/04/14 06:37:57;;;;;;;29.20;13.60;;;9.70;99.90;;;;;;4989054;28;20042;-66
2022/04/14 06:40:23;;;;;;;29.88;13.48;;;10.20;99.90;;;;;;4986535;28;20347;-66
2022/04/14 06:42:49;;;;;;;20.15;10.52;;;10.70;99.90;;;;;;4989232;28;20022;-69
2022/04/14 06:45:19;;;;;;;23.45;12.40;;;11.00;99.90;;;;;;4989614;28;20559;-66
2022/04/14 06:47:45;;;;;;;31.90;15.05;;;11.30;99.90;;;;;;4992964;28;20030;-66
2022/04/14 06:50:11;;;;;;;26.17;12.05;;;11.50;99.90;;;;;;4992348;28;20113;-66
2022/04/14 06:52:38;;;;;;;23.52;13.27;;;11.70;99.90;;;;;;4992847;28;20447;-67
2022/04/14 06:55:05;;;;;;;30.48;13.90;;;11.80;99.90;;;;;;4988846;28;20038;-64
2022/04/14 06:57:30;;;;;;;34.63;16.33;;;12.00;99.90;;;;;;4989371;28;20034;-65
2022/04/14 06:59:56;;;;;;;32.88;15.93;;;12.20;99.90;;;;;;4985180;28;20030;-66
2022/04/14 07:02:22;;;;;;;38.17;16.50;;;12.30;99.90;;;;;;4987459;28;20033;-66
2022/04/14 07:04:48;;;;;;;37.03;16.88;;;12.40;99.90;;;;;;4987833;28;20757;-65
2022/04/14 07:07:14;;;;;;;38.50;18.00;;;12.60;99.90;;;;;;4989760;28;20042;-65
2022/04/14 07:09:40;;;;;;;44.75;19.85;;;12.70;99.90;;;;;;4988598;28;20027;-66
2022/04/14 07:12:06;;;;;;;42.33;20.77;;;12.70;99.90;;;;;;4986831;28;21478;-65
2022/04/14 07:14:33;;;;;;;50.60;20.95;;;12.80;99.90;;;;;;4989476;28;20042;-65
2022/04/14 07:16:59;;;;;;;47.38;21.55;;;12.90;99.90;;;;;;4990345;28;20039;-65
2022/04/14 07:19:26;;;;;;;48.15;21.83;;;12.90;99.90;;;;;;4989999;28;20038;-66
2022/04/14 07:21:52;;;;;;;46.75;20.92;;;13.00;99.90;;;;;;4988156;28;20038;-66
2022/04/14 07:24:18;;;;;;;41.28;21.35;;;13.00;99.90;;;;;;4990756;28;20754;-66
2022/04/14 07:26:44;;;;;;;47.47;23.10;;;13.10;99.90;;;;;;4986966;28;20475;-67
2022/04/14 07:29:10;;;;;;;45.08;22.50;;;13.20;99.90;;;;;;4985554;28;20030;-66
2022/04/14 07:31:36;;;;;;;44.33;21.15;;;13.30;99.90;;;;;;4988733;28;20053;-67
2022/04/14 07:34:03;;;;;;;51.95;21.95;;;13.40;99.90;;;;;;4982766;28;20061;-65
2022/04/14 07:36:29;;;;;;;45.80;21.95;;;13.50;99.90;;;;;;4986303;28;20038;-67
2022/04/14 07:38:54;;;;;;;49.53;22.50;;;13.60;99.90;;;;;;4986826;28;20925;-70
2022/04/14 07:41:20;;;;;;;50.58;20.40;;;13.60;99.90;;;;;;4986439;28;20030;-69
2022/04/14 07:43:46;;;;;;;44.70;20.60;;;13.80;99.90;;;;;;4983845;28;20177;-69
2022/04/14 07:46:12;;;;;;;40.72;19.20;;;14.00;99.90;;;;;;4991375;28;20030;-69
2022/04/14 07:48:38;;;;;;;43.53;19.75;;;14.20;99.90;;;;;;4991570;28;20049;-70
2022/04/14 07:51:04;;;;;;;39.78;19.77;;;14.20;99.90;;;;;;4990318;28;20061;-70
2022/04/14 07:53:30;;;;;;;38.22;19.90;;;14.40;99.90;;;;;;4991060;28;20102;-69
2022/04/14 07:55:56;;;;;;;39.38;17.77;;;14.40;99.90;;;;;;4990873;28;20035;-69
2022/04/14 07:58:21;;;;;;;36.20;19.05;;;14.50;99.90;;;;;;4990933;28;20037;-69
2022/04/14 08:00:50;;;;;;;38.13;18.90;;;14.60;99.90;;;;;;4991406;28;20030;-69
2022/04/14 08:03:16;;;;;;;40.72;18.83;;;14.70;99.90;;;;;;4991301;28;20027;-69
2022/04/14 08:05:43;;;;;;;35.78;17.48;;;14.80;99.90;;;;;;4990560;28;20022;-70
2022/04/14 08:08:14;;;;;;;39.50;17.80;;;14.80;99.90;;;;;;4990731;28;20224;-69
2022/04/14 08:10:41;;;;;;;38.92;18.77;;;14.80;99.90;;;;;;4991142;28;20537;-69
2022/04/14 08:13:07;;;;;;;36.40;18.70;;;14.90;99.90;;;;;;4990585;28;20177;-69
2022/04/14 08:15:33;;;;;;;41.10;18.60;;;15.00;99.90;;;;;;4991409;28;20526;-70
2022/04/14 08:17:59;;;;;;;34.70;17.15;;;15.10;99.90;;;;;;4991128;28;20427;-70
2022/04/14 08:20:26;;;;;;;32.30;16.85;;;15.20;99.90;;;;;;4989978;28;20864;-70
2022/04/14 08:23:02;;;;;;;36.35;18.55;;;15.30;99.90;;;;;;4991265;28;20069;-69
2022/04/14 08:25:33;;;;;;;36.83;18.50;;;15.40;99.90;;;;;;4990650;28;20486;-69
2022/04/14 08:28:01;;;;;;;37.35;18.55;;;15.50;99.90;;;;;;4990987;28;20038;-70
2022/04/14 08:30:29;;;;;;;36.60;17.50;;;15.70;99.90;;;;;;4990502;28;20216;-69
2022/04/14 08:32:56;;;;;;;34.90;17.52;;;15.60;99.90;;;;;;4991117;28;20030;-70
2022/04/14 08:35:22;;;;;;;40.20;18.85;;;15.70;99.90;;;;;;4985009;28;20057;-70
2022/04/14 08:37:49;;;;;;;35.30;17.95;;;15.80;99.90;;;;;;4988004;28;20440;-70
2022/04/14 08:40:19;;;;;;;32.65;16.02;;;15.80;99.90;;;;;;4990054;28;20069;-69
2022/04/14 08:42:47;;;;;;;38.30;17.60;;;15.70;99.90;;;;;;4991077;28;20115;-71
2022/04/14 08:45:14;;;;;;;40.70;18.27;;;15.70;99.90;;;;;;4989906;28;20082;-69
2022/04/14 08:47:40;;;;;;;42.95;17.80;;;15.80;99.90;;;;;;4990791;28;20127;-69
2022/04/14 08:50:09;;;;;;;39.75;18.52;;;16.00;99.90;;;;;;4990458;28;20041;-69
2022/04/14 08:52:36;;;;;;;36.15;16.42;;;16.00;99.90;;;;;;4990533;28;20105;-69
2022/04/14 08:55:05;;;;;;;36.53;16.98;;;16.00;99.90;;;;;;4990011;28;20488;-70
2022/04/14 08:57:32;;;;;;;39.10;16.85;;;16.20;99.90;;;;;;4983531;28;20046;-68
2022/04/14 08:59:59;;;;;;;37.45;16.50;;;16.40;99.90;;;;;;4989239;28;20047;-68
2022/04/14 09:02:27;;;;;;;33.05;16.40;;;16.50;99.90;;;;;;4989845;28;20027;-68
2022/04/14 09:04:53;;;;;;;28.92;15.40;;;16.60;99.90;;;;;;4989235;28;20580;-69
2022/04/14 09:07:19;;;;;;;28.55;15.43;;;16.80;99.90;;;;;;4989538;28;20435;-69
2022/04/14 09:09:45;;;;;;;29.85;15.27;;;16.90;99.90;;;;;;4990661;28;20035;-71
2022/04/14 09:12:12;;;;;;;31.90;15.15;;;17.00;99.90;;;;;;4990130;28;20387;-68
2022/04/14 09:14:40;;;;;;;31.10;15.38;;;17.10;99.90;;;;;;4982157;28;20411;-68
2022/04/14 09:17:07;;;;;;;31.58;15.40;;;17.10;99.90;;;;;;4990553;28;20109;-69
2022/04/14 09:19:34;;;;;;;29.67;15.77;;;17.00;99.90;;;;;;4988116;28;20065;-68
2022/04/14 09:22:16;;;;;;;31.05;15.82;;;17.10;99.90;;;;;;4989137;28;20043;-69
2022/04/14 09:24:49;;;;;;;28.83;14.98;;;17.40;99.90;;;;;;4990089;28;20026;-68
2022/04/14 09:27:28;;;;;;;33.22;14.63;;;17.30;99.90;;;;;;4989230;28;20031;-68
2022/04/14 09:29:56;;;;;;;29.17;14.88;;;17.50;99.90;;;;;;4990106;28;20078;-68
2022/04/14 09:32:30;;;;;;;28.15;15.05;;;17.40;99.90;;;;;;4988956;28;20759;-68
2022/04/14 09:34:57;;;;;;;27.48;13.75;;;17.60;99.90;;;;;;4990495;28;20033;-69
2022/04/14 09:37:24;;;;;;;31.35;14.60;;;17.90;99.90;;;;;;4989107;28;20053;-69
2022/04/14 09:39:51;;;;;;;31.73;14.90;;;17.90;99.90;;;;;;4990111;28;20022;-69
2022/04/14 09:42:16;;;;;;;35.28;14.25;;;17.90;99.90;;;;;;4989195;28;20375;-69
2022/04/14 09:44:42;;;;;;;39.88;14.95;;;17.90;99.90;;;;;;4989691;28;20059;-69
2022/04/14 09:47:08;;;;;;;27.50;14.40;;;17.80;99.90;;;;;;4989845;28;20077;-69
2022/04/14 09:49:40;;;;;;;29.95;14.88;;;18.00;99.90;;;;;;4987565;28;20026;-69
2022/04/14 09:52:07;;;;;;;30.00;13.88;;;18.20;99.90;;;;;;4990072;28;20062;-69
2022/04/14 09:54:33;;;;;;;24.80;13.35;;;18.40;99.90;;;;;;4988664;28;20637;-69
2022/04/14 09:56:58;;;;;;;34.65;14.63;;;18.40;99.90;;;;;;4989955;28;20034;-69
2022/04/14 09:59:26;;;;;;;24.75;13.98;;;18.20;99.90;;;;;;4986896;28;20030;-69
2022/04/14 10:02:12;;;;;;;31.17;14.90;;;18.30;99.90;;;;;;4970364;28;20130;-69
2022/04/14 10:04:40;;;;;;;23.85;12.05;;;18.60;99.90;;;;;;4987218;28;20034;-69
2022/04/14 10:07:17;;;;;;;22.23;12.70;;;18.70;99.90;;;;;;4989921;28;20149;-69
2022/04/14 10:09:45;;;;;;;23.75;12.07;;;18.70;99.90;;;;;;4989416;28;20038;-69
2022/04/14 10:12:23;;;;;;;23.45;11.73;;;18.80;99.90;;;;;;4971488;28;20372;-69
2022/04/14 10:14:59;;;;;;;24.08;12.27;;;18.70;99.90;;;;;;4989088;28;20030;-69
2022/04/14 10:17:26;;;;;;;27.73;13.57;;;18.90;99.90;;;;;;4988459;28;20037;-69
2022/04/14 10:19:52;;;;;;;23.00;11.77;;;19.10;99.90;;;;;;4980890;28;20044;-69
2022/04/14 10:22:19;;;;;;;24.80;11.18;;;19.20;99.90;;;;;;4988628;28;20023;-68
2022/04/14 10:24:46;;;;;;;19.42;11.60;;;19.10;99.90;;;;;;4987871;28;20031;-69
2022/04/14 10:27:14;;;;;;;22.48;11.48;;;19.20;99.90;;;;;;4989166;28;20037;-69
2022/04/14 10:29:41;;;;;;;22.42;11.77;;;19.30;99.90;;;;;;4987209;28;20467;-68
2022/04/14 10:32:07;;;;;;;26.08;11.60;;;19.30;99.90;;;;;;4988837;28;20451;-68
2022/04/14 10:34:34;;;;;;;23.45;11.55;;;19.30;99.90;;;;;;4986908;28;20030;-68
2022/04/14 10:37:02;;;;;;;25.23;11.55;;;19.20;99.90;;;;;;4989215;28;20034;-68
2022/04/14 10:39:31;;;;;;;21.98;10.93;;;19.30;99.90;;;;;;4988614;28;20120;-68
2022/04/14 10:42:00;;;;;;;21.17;10.55;;;19.40;99.90;;;;;;4988668;28;20045;-69
2022/04/14 10:44:46;;;;;;;22.23;11.20;;;19.40;99.90;;;;;;4987966;28;20046;-68
2022/04/14 10:47:31;;;;;;;25.50;11.05;;;19.50;99.90;;;;;;4984974;28;20070;-69
2022/04/14 10:49:57;;;;;;;24.90;11.57;;;19.60;99.90;;;;;;4989024;28;20197;-68
2022/04/14 10:52:24;;;;;;;20.10;11.05;;;19.70;99.90;;;;;;4988774;28;20458;-68
2022/04/14 10:55:01;;;;;;;22.38;10.50;;;19.50;99.90;;;;;;4987482;28;20065;-69
2022/04/14 10:57:41;;;;;;;19.52;10.25;;;19.60;99.90;;;;;;4988314;28;20061;-68
2022/04/14 11:00:19;;;;;;;21.50;10.60;;;19.80;99.90;;;;;;4981761;28;20136;-68
2022/04/14 11:03:08;;;;;;;15.32;10.05;;;19.90;99.90;;;;;;4988774;28;20409;-68
2022/04/14 11:05:37;;;;;;;20.00;9.88;;;20.00;99.90;;;;;;4988418;28;20351;-68
2022/04/14 11:08:24;;;;;;;18.90;9.88;;;20.10;99.90;;;;;;4988488;28;20684;-68
2022/04/14 11:11:10;;;;;;;16.88;10.02;;;20.30;99.90;;;;;;4988637;28;20034;-68
2022/04/14 11:13:51;;;;;;;27.25;10.50;;;20.60;99.90;;;;;;4988281;28;20113;-68
2022/04/14 11:16:49;;;;;;;24.48;9.45;;;20.50;99.90;;;;;;4981803;28;20026;-68
2022/04/14 11:19:15;;;;;;;20.80;9.80;;;20.70;99.90;;;;;;4944660;28;20446;-68
2022/04/14 11:22:01;;;;;;;21.95;9.85;;;20.90;99.90;;;;;;4988219;28;20113;-68
2022/04/14 11:24:35;;;;;;;19.60;9.18;;;21.00;99.90;;;;;;4988059;28;20089;-68
2022/04/14 11:27:09;;;;;;;18.98;10.05;;;20.80;99.90;;;;;;4988070;28;20030;-68
2022/04/14 11:29:35;;;;;;;18.48;9.30;;;20.90;99.90;;;;;;4988145;28;20033;-69
2022/04/14 11:32:01;;;;;;;17.90;9.85;;;20.90;99.90;;;;;;4992088;28;20091;-68
2022/04/14 11:34:33;;;;;;;18.90;9.00;;;20.90;99.90;;;;;;4991507;28;20065;-68
2022/04/14 11:37:01;;;;;;;22.80;8.80;;;21.00;99.90;;;;;;4991946;28;20043;-68
2022/04/14 11:39:28;;;;;;;19.15;10.45;;;21.40;99.90;;;;;;4991470;28;20030;-68
2022/04/14 11:41:55;;;;;;;19.15;9.35;;;21.30;99.90;;;;;;4991968;28;20188;-68
2022/04/14 11:44:22;;;;;;;16.45;8.35;;;21.40;99.90;;;;;;4989880;28;20133;-67
2022/04/14 11:46:54;;;;;;;16.50;9.27;;;21.60;99.90;;;;;;4992088;28;20035;-68
2022/04/14 11:49:24;;;;;;;19.20;8.45;;;21.30;99.90;;;;;;4991747;28;20099;-68
2022/04/14 11:51:55;;;;;;;18.70;8.95;;;21.50;99.90;;;;;;4990860;28;20046;-68
2022/04/14 11:54:27;;;;;;;18.08;9.13;;;21.80;99.90;;;;;;4982606;28;20026;-68
2022/04/14 11:56:58;;;;;;;21.40;9.23;;;22.10;99.90;;;;;;4991316;28;20037;-68
2022/04/14 11:59:30;;;;;;;16.90;8.23;;;22.10;99.90;;;;;;4990999;28;20030;-68
2022/04/14 12:02:07;;;;;;;12.88;7.28;;;22.40;99.90;;;;;;4991792;28;20038;-68
2022/04/14 12:04:54;;;;;;;13.77;7.63;;;22.90;98.80;;;;;;4991133;28;20041;-68
2022/04/14 12:07:22;;;;;;;21.25;8.23;;;23.30;99.90;;;;;;4989817;28;20026;-68
2022/04/14 12:10:03;;;;;;;15.70;7.68;;;23.50;89.80;;;;;;4991161;28;20038;-70
2022/04/14 12:12:35;;;;;;;15.43;7.70;;;23.50;88.40;;;;;;4989881;28;20168;-69
2022/04/14 12:15:02;;;;;;;15.68;7.68;;;23.50;89.00;;;;;;4991650;28;20046;-68
2022/04/14 12:17:27;;;;;;;12.02;7.05;;;23.40;90.70;;;;;;4990682;28;20080;-68
2022/04/14 12:19:57;;;;;;;12.55;7.03;;;23.20;90.70;;;;;;4991675;28;20031;-69
2022/04/14 12:22:24;;;;;;;15.98;7.05;;;23.00;86.30;;;;;;4990828;28;20168;-68
2022/04/14 12:24:53;;;;;;;15.38;7.28;;;23.00;85.60;;;;;;4990050;28;20026;-69
2022/04/14 12:27:23;;;;;;;11.05;5.85;;;22.90;83.50;;;;;;4991127;28;20030;-69
2022/04/14 12:29:51;;;;;;;11.50;5.90;;;23.10;90.40;;;;;;4989595;28;20045;-69
2022/04/14 12:32:17;;;;;;;10.85;6.10;;;23.20;78.70;;;;;;4991659;28;20030;-68
2022/04/14 12:34:45;;;;;;;11.05;6.30;;;23.40;78.10;;;;;;4988991;28;20053;-69
2022/04/14 12:37:18;;;;;;;11.98;5.72;;;23.30;74.30;;;;;;4989647;28;20467;-69
2022/04/14 12:40:09;;;;;;;16.00;7.50;;;23.60;82.70;;;;;;4990445;28;20026;-69